Rockfall, Connecticut
Current Conditions -  °F | °C
As of 5:53 PM on Monday 22 Dec 2014 (Local Time) from KMMK Reporting Station
Overcast Overcast  
Wind Chill: 37°   Ceiling: 2100
Heat Index: 41°   Visibility: 10mi
Dew Point: 34°   Wind: 6mph
Humidity: 76%   Direction: 10°N
Pressure: 30.27"   Gusts: NA
Location:  41.53°N, 72.7°W
Report Text: KMMK 222253Z AUTO 01005KT 10SM BKN021 OVC046 05/01 A3027 RMK AO2 SLP251 T00500011 TSNO
Loading
Personal Weather Stations






























Interactive Weather Map New forecast layout! Learn more

10-Day Weather Forecast

Advertisements
Track Severe Weather on mobile